sensor_id;sensor_type;location;lat;lon;timestamp;P1;durP1;ratioP1;P2;durP2;ratioP2
54679;SDS011;40578;53.178;5.846;2023-04-24T00:01:54;12.40;;;9.13;;
54679;SDS011;40578;53.178;5.846;2023-04-24T00:04:21;15.27;;;9.77;;
54679;SDS011;40578;53.178;5.846;2023-04-24T00:06:47;12.70;;;9.77;;
54679;SDS011;40578;53.178;5.846;2023-04-24T00:09:18;15.38;;;10.10;;
54679;SDS011;40578;53.178;5.846;2023-04-24T00:11:44;11.40;;;9.83;;
54679;SDS011;40578;53.178;5.846;2023-04-24T00:14:10;12.47;;;9.87;;
54679;SDS011;40578;53.178;5.846;2023-04-24T00:16:35;14.53;;;9.87;;
54679;SDS011;40578;53.178;5.846;2023-04-24T00:19:01;14.30;;;10.53;;
54679;SDS011;40578;53.178;5.846;2023-04-24T00:21:26;13.10;;;10.77;;
54679;SDS011;40578;53.178;5.846;2023-04-24T00:23:52;12.77;;;10.70;;
54679;SDS011;40578;53.178;5.846;2023-04-24T00:26:18;16.60;;;11.23;;
54679;SDS011;40578;53.178;5.846;2023-04-24T00:28:44;13.43;;;11.00;;
54679;SDS011;40578;53.178;5.846;2023-04-24T00:31:09;15.13;;;10.70;;
54679;SDS011;40578;53.178;5.846;2023-04-24T00:33:35;14.27;;;10.37;;
54679;SDS011;40578;53.178;5.846;2023-04-24T00:36:01;13.83;;;11.00;;
54679;SDS011;40578;53.178;5.846;2023-04-24T00:38:26;14.93;;;11.20;;
54679;SDS011;40578;53.178;5.846;2023-04-24T00:40:52;15.93;;;11.47;;
54679;SDS011;40578;53.178;5.846;2023-04-24T00:43:19;15.82;;;11.05;;
54679;SDS011;40578;53.178;5.846;2023-04-24T00:45:44;14.70;;;11.73;;
54679;SDS011;40578;53.178;5.846;2023-04-24T00:48:11;13.50;;;10.90;;
54679;SDS011;40578;53.178;5.846;2023-04-24T00:50:37;15.40;;;11.50;;
54679;SDS011;40578;53.178;5.846;2023-04-24T00:55:29;14.02;;;11.18;;
54679;SDS011;40578;53.178;5.846;2023-04-24T00:57:56;15.50;;;10.80;;
54679;SDS011;40578;53.178;5.846;2023-04-24T01:00:22;19.03;;;11.47;;
54679;SDS011;40578;53.178;5.846;2023-04-24T01:02:48;16.88;;;12.20;;
54679;SDS011;40578;53.178;5.846;2023-04-24T01:05:14;16.08;;;11.50;;
54679;SDS011;40578;53.178;5.846;2023-04-24T01:07:43;13.95;;;11.65;;
54679;SDS011;40578;53.178;5.846;2023-04-24T01:10:11;13.85;;;10.60;;
54679;SDS011;40578;53.178;5.846;2023-04-24T01:12:37;15.38;;;11.70;;
54679;SDS011;40578;53.178;5.846;2023-04-24T01:15:03;14.83;;;11.73;;
54679;SDS011;40578;53.178;5.846;2023-04-24T01:17:31;13.25;;;11.05;;
54679;SDS011;40578;53.178;5.846;2023-04-24T01:19:57;15.20;;;11.65;;
54679;SDS011;40578;53.178;5.846;2023-04-24T01:22:24;14.88;;;11.02;;
54679;SDS011;40578;53.178;5.846;2023-04-24T01:24:51;14.40;;;11.50;;
54679;SDS011;40578;53.178;5.846;2023-04-24T01:27:17;15.45;;;11.30;;
54679;SDS011;40578;53.178;5.846;2023-04-24T01:29:43;15.80;;;11.53;;
54679;SDS011;40578;53.178;5.846;2023-04-24T01:32:09;17.80;;;12.23;;
54679;SDS011;40578;53.178;5.846;2023-04-24T01:34:35;14.55;;;11.48;;
54679;SDS011;40578;53.178;5.846;2023-04-24T01:37:01;15.03;;;10.77;;
54679;SDS011;40578;53.178;5.846;2023-04-24T01:39:26;14.60;;;10.33;;
54679;SDS011;40578;53.178;5.846;2023-04-24T01:41:53;14.45;;;10.10;;
54679;SDS011;40578;53.178;5.846;2023-04-24T01:44:20;12.75;;;9.48;;
54679;SDS011;40578;53.178;5.846;2023-04-24T01:46:45;14.47;;;10.17;;
54679;SDS011;40578;53.178;5.846;2023-04-24T01:49:11;13.70;;;10.03;;
54679;SDS011;40578;53.178;5.846;2023-04-24T01:51:37;13.73;;;10.53;;
54679;SDS011;40578;53.178;5.846;2023-04-24T01:54:02;12.50;;;9.90;;
54679;SDS011;40578;53.178;5.846;2023-04-24T01:56:28;12.83;;;9.93;;
54679;SDS011;40578;53.178;5.846;2023-04-24T01:58:54;15.63;;;9.73;;
54679;SDS011;40578;53.178;5.846;2023-04-24T02:01:21;11.73;;;8.90;;
54679;SDS011;40578;53.178;5.846;2023-04-24T02:03:48;13.63;;;9.68;;
54679;SDS011;40578;53.178;5.846;2023-04-24T02:06:14;12.30;;;9.40;;
54679;SDS011;40578;53.178;5.846;2023-04-24T02:08:39;13.53;;;9.80;;
54679;SDS011;40578;53.178;5.846;2023-04-24T02:11:05;12.53;;;8.93;;
54679;SDS011;40578;53.178;5.846;2023-04-24T02:13:31;14.43;;;9.87;;
54679;SDS011;40578;53.178;5.846;2023-04-24T02:15:57;15.77;;;9.97;;
54679;SDS011;40578;53.178;5.846;2023-04-24T02:18:23;13.80;;;9.73;;
54679;SDS011;40578;53.178;5.846;2023-04-24T02:20:49;12.50;;;9.70;;
54679;SDS011;40578;53.178;5.846;2023-04-24T02:23:14;16.07;;;11.17;;
54679;SDS011;40578;53.178;5.846;2023-04-24T02:25:40;14.33;;;11.13;;
54679;SDS011;40578;53.178;5.846;2023-04-24T02:28:06;14.60;;;11.03;;
54679;SDS011;40578;53.178;5.846;2023-04-24T02:30:31;17.57;;;12.53;;
54679;SDS011;40578;53.178;5.846;2023-04-24T02:32:57;17.87;;;13.00;;
54679;SDS011;40578;53.178;5.846;2023-04-24T02:35:22;17.07;;;12.07;;
54679;SDS011;40578;53.178;5.846;2023-04-24T02:37:48;16.03;;;11.43;;
54679;SDS011;40578;53.178;5.846;2023-04-24T02:40:14;18.10;;;12.47;;
54679;SDS011;40578;53.178;5.846;2023-04-24T02:42:39;12.77;;;9.93;;
54679;SDS011;40578;53.178;5.846;2023-04-24T02:45:05;13.77;;;9.00;;
54679;SDS011;40578;53.178;5.846;2023-04-24T02:47:31;10.00;;;7.32;;
54679;SDS011;40578;53.178;5.846;2023-04-24T02:49:57;9.10;;;6.50;;
54679;SDS011;40578;53.178;5.846;2023-04-24T02:52:22;7.07;;;5.33;;
54679;SDS011;40578;53.178;5.846;2023-04-24T02:54:48;5.37;;;4.20;;
54679;SDS011;40578;53.178;5.846;2023-04-24T02:57:14;8.67;;;5.50;;
54679;SDS011;40578;53.178;5.846;2023-04-24T02:59:40;6.30;;;4.73;;
54679;SDS011;40578;53.178;5.846;2023-04-24T03:02:05;6.10;;;4.70;;
54679;SDS011;40578;53.178;5.846;2023-04-24T03:04:31;7.07;;;4.17;;
54679;SDS011;40578;53.178;5.846;2023-04-24T03:06:57;6.13;;;4.43;;
54679;SDS011;40578;53.178;5.846;2023-04-24T03:09:22;6.03;;;3.97;;
54679;SDS011;40578;53.178;5.846;2023-04-24T03:11:49;7.87;;;3.60;;
54679;SDS011;40578;53.178;5.846;2023-04-24T03:14:14;5.32;;;3.70;;
54679;SDS011;40578;53.178;5.846;2023-04-24T03:16:40;6.05;;;3.40;;
54679;SDS011;40578;53.178;5.846;2023-04-24T03:19:06;6.27;;;3.60;;
54679;SDS011;40578;53.178;5.846;2023-04-24T03:21:32;4.47;;;3.37;;
54679;SDS011;40578;53.178;5.846;2023-04-24T03:23:58;5.68;;;3.42;;
54679;SDS011;40578;53.178;5.846;2023-04-24T03:26:23;6.30;;;3.57;;
54679;SDS011;40578;53.178;5.846;2023-04-24T03:28:49;5.55;;;3.15;;
54679;SDS011;40578;53.178;5.846;2023-04-24T03:31:15;6.20;;;3.57;;
54679;SDS011;40578;53.178;5.846;2023-04-24T03:33:41;4.13;;;3.22;;
54679;SDS011;40578;53.178;5.846;2023-04-24T03:36:07;5.70;;;4.10;;
54679;SDS011;40578;53.178;5.846;2023-04-24T03:38:33;6.63;;;4.60;;
54679;SDS011;40578;53.178;5.846;2023-04-24T03:40:58;7.00;;;4.70;;
54679;SDS011;40578;53.178;5.846;2023-04-24T03:43:24;7.57;;;4.77;;
54679;SDS011;40578;53.178;5.846;2023-04-24T03:45:50;6.97;;;4.80;;
54679;SDS011;40578;53.178;5.846;2023-04-24T03:48:15;7.80;;;5.50;;
54679;SDS011;40578;53.178;5.846;2023-04-24T03:50:41;7.57;;;5.40;;
54679;SDS011;40578;53.178;5.846;2023-04-24T03:53:07;6.67;;;5.10;;
54679;SDS011;40578;53.178;5.846;2023-04-24T03:55:33;10.52;;;5.30;;
54679;SDS011;40578;53.178;5.846;2023-04-24T03:57:58;9.67;;;4.70;;
54679;SDS011;40578;53.178;5.846;2023-04-24T04:00:24;7.00;;;4.90;;
54679;SDS011;40578;53.178;5.846;2023-04-24T04:02:51;7.07;;;4.68;;
54679;SDS011;40578;53.178;5.846;2023-04-24T04:05:16;6.77;;;4.67;;
54679;SDS011;40578;53.178;5.846;2023-04-24T04:07:42;8.53;;;5.07;;
54679;SDS011;40578;53.178;5.846;2023-04-24T04:10:07;8.10;;;4.67;;
54679;SDS011;40578;53.178;5.846;2023-04-24T04:12:33;6.83;;;4.30;;
54679;SDS011;40578;53.178;5.846;2023-04-24T04:14:59;9.93;;;5.03;;
54679;SDS011;40578;53.178;5.846;2023-04-24T04:17:25;7.93;;;5.53;;
54679;SDS011;40578;53.178;5.846;2023-04-24T04:19:50;8.00;;;5.13;;
54679;SDS011;40578;53.178;5.846;2023-04-24T04:22:16;7.50;;;5.47;;
54679;SDS011;40578;53.178;5.846;2023-04-24T04:24:41;10.63;;;6.43;;
54679;SDS011;40578;53.178;5.846;2023-04-24T04:27:08;9.57;;;6.68;;
54679;SDS011;40578;53.178;5.846;2023-04-24T04:29:33;9.30;;;6.17;;
54679;SDS011;40578;53.178;5.846;2023-04-24T04:34:27;11.32;;;7.20;;
54679;SDS011;40578;53.178;5.846;2023-04-24T04:36:53;9.77;;;6.63;;
54679;SDS011;40578;53.178;5.846;2023-04-24T04:39:18;8.57;;;6.20;;
54679;SDS011;40578;53.178;5.846;2023-04-24T04:41:44;9.35;;;4.97;;
54679;SDS011;40578;53.178;5.846;2023-04-24T04:44:14;8.93;;;5.32;;
54679;SDS011;40578;53.178;5.846;2023-04-24T04:46:40;7.55;;;5.22;;
54679;SDS011;40578;53.178;5.846;2023-04-24T04:49:06;9.10;;;5.53;;
54679;SDS011;40578;53.178;5.846;2023-04-24T04:51:33;8.98;;;4.68;;
54679;SDS011;40578;53.178;5.846;2023-04-24T04:53:59;9.68;;;6.65;;
54679;SDS011;40578;53.178;5.846;2023-04-24T04:56:25;11.60;;;7.27;;
54679;SDS011;40578;53.178;5.846;2023-04-24T04:58:51;17.42;;;8.48;;
54679;SDS011;40578;53.178;5.846;2023-04-24T05:01:20;14.32;;;8.68;;
54679;SDS011;40578;53.178;5.846;2023-04-24T05:03:48;16.08;;;9.60;;
54679;SDS011;40578;53.178;5.846;2023-04-24T05:06:13;13.83;;;8.80;;
54679;SDS011;40578;53.178;5.846;2023-04-24T05:08:40;15.07;;;9.77;;
54679;SDS011;40578;53.178;5.846;2023-04-24T05:11:05;15.10;;;9.40;;
54679;SDS011;40578;53.178;5.846;2023-04-24T05:13:31;15.17;;;8.50;;
54679;SDS011;40578;53.178;5.846;2023-04-24T05:15:57;16.30;;;9.60;;
54679;SDS011;40578;53.178;5.846;2023-04-24T05:18:23;16.30;;;8.50;;
54679;SDS011;40578;53.178;5.846;2023-04-24T05:20:48;11.20;;;7.20;;
54679;SDS011;40578;53.178;5.846;2023-04-24T05:23:14;12.87;;;6.73;;
54679;SDS011;40578;53.178;5.846;2023-04-24T05:25:40;8.80;;;6.37;;
54679;SDS011;40578;53.178;5.846;2023-04-24T05:28:06;9.52;;;6.22;;
54679;SDS011;40578;53.178;5.846;2023-04-24T05:30:32;8.73;;;5.47;;
54679;SDS011;40578;53.178;5.846;2023-04-24T05:32:57;6.27;;;5.10;;
54679;SDS011;40578;53.178;5.846;2023-04-24T05:35:23;8.07;;;5.03;;
54679;SDS011;40578;53.178;5.846;2023-04-24T05:37:48;7.63;;;5.10;;
54679;SDS011;40578;53.178;5.846;2023-04-24T05:40:14;10.82;;;5.63;;
54679;SDS011;40578;53.178;5.846;2023-04-24T05:42:40;8.77;;;4.97;;
54679;SDS011;40578;53.178;5.846;2023-04-24T05:45:06;6.97;;;5.87;;
54679;SDS011;40578;53.178;5.846;2023-04-24T05:47:32;9.15;;;5.78;;
54679;SDS011;40578;53.178;5.846;2023-04-24T05:49:58;9.87;;;6.37;;
54679;SDS011;40578;53.178;5.846;2023-04-24T05:52:23;6.77;;;5.53;;
54679;SDS011;40578;53.178;5.846;2023-04-24T05:54:49;7.17;;;5.47;;
54679;SDS011;40578;53.178;5.846;2023-04-24T05:57:15;9.30;;;5.57;;
54679;SDS011;40578;53.178;5.846;2023-04-24T05:59:41;9.13;;;4.53;;
54679;SDS011;40578;53.178;5.846;2023-04-24T06:02:07;10.23;;;4.50;;
54679;SDS011;40578;53.178;5.846;2023-04-24T06:04:33;8.18;;;4.85;;
54679;SDS011;40578;53.178;5.846;2023-04-24T06:06:58;9.40;;;4.60;;
54679;SDS011;40578;53.178;5.846;2023-04-24T06:09:25;13.45;;;5.22;;
54679;SDS011;40578;53.178;5.846;2023-04-24T06:11:51;8.65;;;5.00;;
54679;SDS011;40578;53.178;5.846;2023-04-24T06:14:20;8.23;;;3.90;;
54679;SDS011;40578;53.178;5.846;2023-04-24T06:16:46;6.53;;;4.10;;
54679;SDS011;40578;53.178;5.846;2023-04-24T06:19:12;8.27;;;3.50;;
54679;SDS011;40578;53.178;5.846;2023-04-24T06:21:37;9.47;;;4.17;;
54679;SDS011;40578;53.178;5.846;2023-04-24T06:24:03;6.23;;;3.63;;
54679;SDS011;40578;53.178;5.846;2023-04-24T06:26:29;9.85;;;3.70;;
54679;SDS011;40578;53.178;5.846;2023-04-24T06:28:55;4.65;;;2.95;;
54679;SDS011;40578;53.178;5.846;2023-04-24T06:31:24;9.38;;;3.78;;
54679;SDS011;40578;53.178;5.846;2023-04-24T06:33:50;6.85;;;4.00;;
54679;SDS011;40578;53.178;5.846;2023-04-24T06:36:16;8.77;;;4.40;;
54679;SDS011;40578;53.178;5.846;2023-04-24T06:38:42;8.10;;;5.50;;
54679;SDS011;40578;53.178;5.846;2023-04-24T06:41:07;10.00;;;6.20;;
54679;SDS011;40578;53.178;5.846;2023-04-24T06:43:34;16.52;;;8.80;;
54679;SDS011;40578;53.178;5.846;2023-04-24T06:46:00;17.93;;;10.43;;
54679;SDS011;40578;53.178;5.846;2023-04-24T06:48:26;18.90;;;11.00;;
54679;SDS011;40578;53.178;5.846;2023-04-24T06:50:51;20.77;;;12.40;;
54679;SDS011;40578;53.178;5.846;2023-04-24T06:53:17;23.70;;;12.73;;
54679;SDS011;40578;53.178;5.846;2023-04-24T06:55:44;22.88;;;12.75;;
54679;SDS011;40578;53.178;5.846;2023-04-24T06:58:11;20.98;;;12.25;;
54679;SDS011;40578;53.178;5.846;2023-04-24T07:00:36;20.57;;;12.97;;
54679;SDS011;40578;53.178;5.846;2023-04-24T07:03:02;19.73;;;12.27;;
54679;SDS011;40578;53.178;5.846;2023-04-24T07:05:30;17.90;;;11.63;;
54679;SDS011;40578;53.178;5.846;2023-04-24T07:07:56;20.02;;;10.93;;
54679;SDS011;40578;53.178;5.846;2023-04-24T07:10:23;18.17;;;11.52;;
54679;SDS011;40578;53.178;5.846;2023-04-24T07:12:49;20.55;;;12.10;;
54679;SDS011;40578;53.178;5.846;2023-04-24T07:15:15;20.40;;;13.03;;
54679;SDS011;40578;53.178;5.846;2023-04-24T07:17:41;25.63;;;13.45;;
54679;SDS011;40578;53.178;5.846;2023-04-24T07:20:10;24.35;;;14.35;;
54679;SDS011;40578;53.178;5.846;2023-04-24T07:22:39;23.23;;;14.95;;
54679;SDS011;40578;53.178;5.846;2023-04-24T07:25:05;25.17;;;15.18;;
54679;SDS011;40578;53.178;5.846;2023-04-24T07:27:32;24.52;;;15.60;;
54679;SDS011;40578;53.178;5.846;2023-04-24T07:29:58;26.10;;;15.05;;
54679;SDS011;40578;53.178;5.846;2023-04-24T07:32:24;28.70;;;16.87;;
54679;SDS011;40578;53.178;5.846;2023-04-24T07:34:50;22.67;;;14.90;;
54679;SDS011;40578;53.178;5.846;2023-04-24T07:37:15;20.30;;;14.23;;
54679;SDS011;40578;53.178;5.846;2023-04-24T07:39:41;26.23;;;14.67;;
54679;SDS011;40578;53.178;5.846;2023-04-24T07:42:07;22.30;;;13.40;;
54679;SDS011;40578;53.178;5.846;2023-04-24T07:44:33;16.60;;;11.50;;
54679;SDS011;40578;53.178;5.846;2023-04-24T07:46:58;20.53;;;11.13;;
54679;SDS011;40578;53.178;5.846;2023-04-24T07:49:24;18.85;;;10.10;;
54679;SDS011;40578;53.178;5.846;2023-04-24T07:51:50;19.53;;;10.47;;
54679;SDS011;40578;53.178;5.846;2023-04-24T07:54:16;17.70;;;9.33;;
54679;SDS011;40578;53.178;5.846;2023-04-24T07:56:43;14.60;;;8.50;;
54679;SDS011;40578;53.178;5.846;2023-04-24T08:01:35;15.70;;;8.98;;
54679;SDS011;40578;53.178;5.846;2023-04-24T08:04:01;15.07;;;8.80;;
54679;SDS011;40578;53.178;5.846;2023-04-24T08:06:27;18.83;;;8.17;;
54679;SDS011;40578;53.178;5.846;2023-04-24T08:08:55;17.52;;;8.90;;
54679;SDS011;40578;53.178;5.846;2023-04-24T08:11:21;14.93;;;8.38;;
54679;SDS011;40578;53.178;5.846;2023-04-24T08:13:47;16.17;;;8.37;;
54679;SDS011;40578;53.178;5.846;2023-04-24T08:16:12;12.93;;;7.57;;
54679;SDS011;40578;53.178;5.846;2023-04-24T08:18:38;18.93;;;8.50;;
54679;SDS011;40578;53.178;5.846;2023-04-24T08:21:04;13.13;;;7.57;;
54679;SDS011;40578;53.178;5.846;2023-04-24T08:23:30;17.50;;;7.63;;
54679;SDS011;40578;53.178;5.846;2023-04-24T08:25:55;17.83;;;8.57;;
54679;SDS011;40578;53.178;5.846;2023-04-24T08:28:22;16.35;;;7.93;;
54679;SDS011;40578;53.178;5.846;2023-04-24T08:30:47;14.07;;;7.40;;
54679;SDS011;40578;53.178;5.846;2023-04-24T08:33:13;14.00;;;7.17;;
54679;SDS011;40578;53.178;5.846;2023-04-24T08:35:39;12.80;;;7.13;;
54679;SDS011;40578;53.178;5.846;2023-04-24T08:38:05;9.60;;;6.70;;
54679;SDS011;40578;53.178;5.846;2023-04-24T08:40:31;16.17;;;6.30;;
54679;SDS011;40578;53.178;5.846;2023-04-24T08:42:59;11.95;;;6.15;;
54679;SDS011;40578;53.178;5.846;2023-04-24T08:45:25;14.97;;;7.27;;
54679;SDS011;40578;53.178;5.846;2023-04-24T08:47:54;10.73;;;5.47;;
54679;SDS011;40578;53.178;5.846;2023-04-24T08:50:20;8.70;;;4.93;;
54679;SDS011;40578;53.178;5.846;2023-04-24T08:52:47;12.18;;;5.15;;
54679;SDS011;40578;53.178;5.846;2023-04-24T08:55:15;10.85;;;5.32;;
54679;SDS011;40578;53.178;5.846;2023-04-24T08:57:44;7.65;;;4.65;;
54679;SDS011;40578;53.178;5.846;2023-04-24T09:00:10;8.63;;;4.47;;
54679;SDS011;40578;53.178;5.846;2023-04-24T09:02:39;8.70;;;4.05;;
54679;SDS011;40578;53.178;5.846;2023-04-24T09:05:08;8.18;;;4.10;;
54679;SDS011;40578;53.178;5.846;2023-04-24T09:10:04;11.25;;;4.40;;
54679;SDS011;40578;53.178;5.846;2023-04-24T09:12:30;14.88;;;4.38;;
54679;SDS011;40578;53.178;5.846;2023-04-24T09:14:56;8.73;;;4.33;;
54679;SDS011;40578;53.178;5.846;2023-04-24T09:17:23;12.30;;;4.72;;
54679;SDS011;40578;53.178;5.846;2023-04-24T09:19:52;9.40;;;4.13;;
54679;SDS011;40578;53.178;5.846;2023-04-24T09:22:17;11.03;;;4.20;;
54679;SDS011;40578;53.178;5.846;2023-04-24T09:24:44;10.37;;;3.83;;
54679;SDS011;40578;53.178;5.846;2023-04-24T09:27:10;9.48;;;3.53;;
54679;SDS011;40578;53.178;5.846;2023-04-24T09:29:37;10.25;;;3.92;;
54679;SDS011;40578;53.178;5.846;2023-04-24T09:32:19;13.57;;;3.70;;
54679;SDS011;40578;53.178;5.846;2023-04-24T09:35:04;12.10;;;4.05;;
54679;SDS011;40578;53.178;5.846;2023-04-24T09:40:20;11.48;;;3.63;;
54679;SDS011;40578;53.178;5.846;2023-04-24T09:42:53;8.48;;;3.25;;
54679;SDS011;40578;53.178;5.846;2023-04-24T09:45:21;11.00;;;3.30;;
54679;SDS011;40578;53.178;5.846;2023-04-24T09:47:52;10.95;;;3.80;;
54679;SDS011;40578;53.178;5.846;2023-04-24T09:50:20;10.13;;;3.65;;
54679;SDS011;40578;53.178;5.846;2023-04-24T09:52:47;11.30;;;3.20;;
54679;SDS011;40578;53.178;5.846;2023-04-24T09:55:26;11.80;;;3.50;;
54679;SDS011;40578;53.178;5.846;2023-04-24T09:57:56;11.32;;;3.58;;
54679;SDS011;40578;53.178;5.846;2023-04-24T10:00:23;7.25;;;2.70;;
54679;SDS011;40578;53.178;5.846;2023-04-24T10:02:57;8.30;;;2.60;;
54679;SDS011;40578;53.178;5.846;2023-04-24T10:05:33;8.35;;;2.40;;
54679;SDS011;40578;53.178;5.846;2023-04-24T10:08:05;11.88;;;3.83;;
54679;SDS011;40578;53.178;5.846;2023-04-24T10:10:37;10.65;;;2.90;;
54679;SDS011;40578;53.178;5.846;2023-04-24T10:13:05;10.07;;;2.80;;
54679;SDS011;40578;53.178;5.846;2023-04-24T10:15:34;10.27;;;2.40;;
54679;SDS011;40578;53.178;5.846;2023-04-24T10:18:00;6.25;;;2.08;;
54679;SDS011;40578;53.178;5.846;2023-04-24T10:20:27;8.90;;;2.50;;
54679;SDS011;40578;53.178;5.846;2023-04-24T10:22:57;9.77;;;2.53;;
54679;SDS011;40578;53.178;5.846;2023-04-24T10:25:24;9.05;;;2.30;;
54679;SDS011;40578;53.178;5.846;2023-04-24T10:27:53;9.05;;;2.90;;
54679;SDS011;40578;53.178;5.846;2023-04-24T10:30:24;9.05;;;2.25;;
54679;SDS011;40578;53.178;5.846;2023-04-24T10:32:51;12.25;;;2.47;;
54679;SDS011;40578;53.178;5.846;2023-04-24T10:35:17;6.87;;;1.97;;
54679;SDS011;40578;53.178;5.846;2023-04-24T10:37:57;8.20;;;2.42;;
54679;SDS011;40578;53.178;5.846;2023-04-24T10:40:31;7.82;;;2.13;;
54679;SDS011;40578;53.178;5.846;2023-04-24T10:42:58;10.55;;;2.50;;
54679;SDS011;40578;53.178;5.846;2023-04-24T10:45:25;10.63;;;2.65;;
54679;SDS011;40578;53.178;5.846;2023-04-24T10:48:03;9.82;;;2.45;;
54679;SDS011;40578;53.178;5.846;2023-04-24T10:50:47;7.78;;;2.22;;
54679;SDS011;40578;53.178;5.846;2023-04-24T10:53:19;9.02;;;2.35;;
54679;SDS011;40578;53.178;5.846;2023-04-24T10:55:49;11.00;;;2.10;;
54679;SDS011;40578;53.178;5.846;2023-04-24T10:58:22;9.05;;;2.35;;
54679;SDS011;40578;53.178;5.846;2023-04-24T11:00:58;8.70;;;2.00;;
54679;SDS011;40578;53.178;5.846;2023-04-24T11:03:26;7.80;;;3.25;;
54679;SDS011;40578;53.178;5.846;2023-04-24T11:05:57;9.45;;;2.38;;
54679;SDS011;40578;53.178;5.846;2023-04-24T11:08:28;7.00;;;2.38;;
54679;SDS011;40578;53.178;5.846;2023-04-24T11:11:11;7.82;;;2.20;;
54679;SDS011;40578;53.178;5.846;2023-04-24T11:19:17;7.93;;;2.30;;
54679;SDS011;40578;53.178;5.846;2023-04-24T11:24:40;8.18;;;2.10;;
54679;SDS011;40578;53.178;5.846;2023-04-24T11:35:00;8.75;;;1.90;;
54679;SDS011;40578;53.178;5.846;2023-04-24T11:37:39;6.20;;;1.73;;
54679;SDS011;40578;53.178;5.846;2023-04-24T11:40:07;4.70;;;1.70;;
54679;SDS011;40578;53.178;5.846;2023-04-24T11:42:39;6.75;;;1.75;;
54679;SDS011;40578;53.178;5.846;2023-04-24T11:45:09;7.45;;;1.63;;
54679;SDS011;40578;53.178;5.846;2023-04-24T11:47:40;9.50;;;2.15;;
54679;SDS011;40578;53.178;5.846;2023-04-24T11:50:07;7.78;;;1.80;;
54679;SDS011;40578;53.178;5.846;2023-04-24T11:52:39;8.38;;;2.00;;
54679;SDS011;40578;53.178;5.846;2023-04-24T11:55:06;11.27;;;1.75;;
54679;SDS011;40578;53.178;5.846;2023-04-24T11:57:34;7.97;;;1.73;;
54679;SDS011;40578;53.178;5.846;2023-04-24T12:00:01;6.15;;;1.50;;
54679;SDS011;40578;53.178;5.846;2023-04-24T12:02:29;5.80;;;1.60;;
54679;SDS011;40578;53.178;5.846;2023-04-24T12:04:55;6.60;;;1.40;;
54679;SDS011;40578;53.178;5.846;2023-04-24T12:07:21;5.97;;;1.70;;
54679;SDS011;40578;53.178;5.846;2023-04-24T12:09:49;7.20;;;1.33;;
54679;SDS011;40578;53.178;5.846;2023-04-24T12:12:27;6.30;;;1.38;;
54679;SDS011;40578;53.178;5.846;2023-04-24T12:14:56;6.15;;;1.05;;
54679;SDS011;40578;53.178;5.846;2023-04-24T12:17:27;5.22;;;1.30;;
54679;SDS011;40578;53.178;5.846;2023-04-24T12:19:57;10.32;;;1.67;;
54679;SDS011;40578;53.178;5.846;2023-04-24T12:22:25;4.28;;;1.10;;
54679;SDS011;40578;53.178;5.846;2023-04-24T12:25:03;3.43;;;1.10;;
54679;SDS011;40578;53.178;5.846;2023-04-24T12:27:33;6.30;;;1.55;;
54679;SDS011;40578;53.178;5.846;2023-04-24T12:30:00;5.18;;;1.05;;
54679;SDS011;40578;53.178;5.846;2023-04-24T12:32:28;4.55;;;1.30;;
54679;SDS011;40578;53.178;5.846;2023-04-24T12:34:54;4.43;;;0.90;;
54679;SDS011;40578;53.178;5.846;2023-04-24T12:37:22;4.88;;;1.33;;
54679;SDS011;40578;53.178;5.846;2023-04-24T12:42:30;6.47;;;1.60;;
54679;SDS011;40578;53.178;5.846;2023-04-24T12:44:57;5.67;;;1.47;;
54679;SDS011;40578;53.178;5.846;2023-04-24T12:47:24;5.40;;;1.17;;
54679;SDS011;40578;53.178;5.846;2023-04-24T12:49:50;5.90;;;1.30;;
54679;SDS011;40578;53.178;5.846;2023-04-24T12:54:53;2.47;;;1.00;;
54679;SDS011;40578;53.178;5.846;2023-04-24T12:57:20;4.70;;;1.30;;
54679;SDS011;40578;53.178;5.846;2023-04-24T12:59:46;6.03;;;1.33;;
54679;SDS011;40578;53.178;5.846;2023-04-24T13:02:12;6.17;;;1.60;;
54679;SDS011;40578;53.178;5.846;2023-04-24T13:04:38;5.93;;;1.70;;
54679;SDS011;40578;53.178;5.846;2023-04-24T13:07:04;7.37;;;1.57;;
54679;SDS011;40578;53.178;5.846;2023-04-24T13:09:30;6.05;;;1.83;;
54679;SDS011;40578;53.178;5.846;2023-04-24T13:11:56;8.63;;;2.30;;
54679;SDS011;40578;53.178;5.846;2023-04-24T13:14:22;10.57;;;2.20;;
54679;SDS011;40578;53.178;5.846;2023-04-24T13:16:48;9.63;;;2.03;;
54679;SDS011;40578;53.178;5.846;2023-04-24T13:19:14;10.80;;;2.35;;
54679;SDS011;40578;53.178;5.846;2023-04-24T13:21:40;10.60;;;2.50;;
54679;SDS011;40578;53.178;5.846;2023-04-24T13:24:06;11.70;;;2.20;;
54679;SDS011;40578;53.178;5.846;2023-04-24T13:28:58;10.20;;;2.72;;
54679;SDS011;40578;53.178;5.846;2023-04-24T13:31:24;13.90;;;2.90;;
54679;SDS011;40578;53.178;5.846;2023-04-24T13:33:49;10.97;;;2.77;;
54679;SDS011;40578;53.178;5.846;2023-04-24T13:36:15;5.40;;;1.97;;
54679;SDS011;40578;53.178;5.846;2023-04-24T13:38:42;6.22;;;1.85;;
54679;SDS011;40578;53.178;5.846;2023-04-24T13:41:09;4.85;;;1.75;;
54679;SDS011;40578;53.178;5.846;2023-04-24T13:43:35;4.13;;;1.60;;
54679;SDS011;40578;53.178;5.846;2023-04-24T13:46:01;6.70;;;1.67;;
54679;SDS011;40578;53.178;5.846;2023-04-24T13:50:54;4.70;;;2.00;;
54679;SDS011;40578;53.178;5.846;2023-04-24T13:53:19;7.63;;;1.97;;
54679;SDS011;40578;53.178;5.846;2023-04-24T13:55:45;9.77;;;2.43;;
54679;SDS011;40578;53.178;5.846;2023-04-24T13:58:10;7.53;;;2.43;;
54679;SDS011;40578;53.178;5.846;2023-04-24T14:00:36;11.97;;;2.87;;
54679;SDS011;40578;53.178;5.846;2023-04-24T14:03:01;13.97;;;3.37;;
54679;SDS011;40578;53.178;5.846;2023-04-24T14:05:27;11.93;;;3.07;;
54679;SDS011;40578;53.178;5.846;2023-04-24T14:07:53;10.97;;;3.47;;
54679;SDS011;40578;53.178;5.846;2023-04-24T14:10:18;10.40;;;3.20;;
54679;SDS011;40578;53.178;5.846;2023-04-24T14:12:44;11.27;;;2.83;;
54679;SDS011;40578;53.178;5.846;2023-04-24T14:15:10;15.17;;;3.90;;
54679;SDS011;40578;53.178;5.846;2023-04-24T14:17:36;11.73;;;3.10;;
54679;SDS011;40578;53.178;5.846;2023-04-24T14:20:01;9.63;;;3.43;;
54679;SDS011;40578;53.178;5.846;2023-04-24T14:22:28;16.38;;;3.88;;
54679;SDS011;40578;53.178;5.846;2023-04-24T14:24:54;14.70;;;4.00;;
54679;SDS011;40578;53.178;5.846;2023-04-24T14:27:19;13.90;;;3.07;;
54679;SDS011;40578;53.178;5.846;2023-04-24T14:29:45;11.70;;;3.33;;
54679;SDS011;40578;53.178;5.846;2023-04-24T14:32:11;14.03;;;4.50;;
54679;SDS011;40578;53.178;5.846;2023-04-24T14:34:36;9.70;;;3.63;;
54679;SDS011;40578;53.178;5.846;2023-04-24T14:37:02;17.67;;;4.63;;
54679;SDS011;40578;53.178;5.846;2023-04-24T14:39:28;9.00;;;3.90;;
54679;SDS011;40578;53.178;5.846;2023-04-24T14:41:53;11.30;;;4.03;;
54679;SDS011;40578;53.178;5.846;2023-04-24T14:44:20;11.25;;;4.25;;
54679;SDS011;40578;53.178;5.846;2023-04-24T14:46:45;10.90;;;3.90;;
54679;SDS011;40578;53.178;5.846;2023-04-24T14:49:11;12.13;;;4.20;;
54679;SDS011;40578;53.178;5.846;2023-04-24T14:51:37;11.00;;;4.18;;
54679;SDS011;40578;53.178;5.846;2023-04-24T14:54:03;9.33;;;3.47;;
54679;SDS011;40578;53.178;5.846;2023-04-24T14:56:28;12.50;;;4.27;;
54679;SDS011;40578;53.178;5.846;2023-04-24T14:58:54;14.40;;;4.33;;
54679;SDS011;40578;53.178;5.846;2023-04-24T15:01:21;14.43;;;4.20;;
54679;SDS011;40578;53.178;5.846;2023-04-24T15:03:47;13.80;;;4.00;;
54679;SDS011;40578;53.178;5.846;2023-04-24T15:06:12;13.33;;;4.87;;
54679;SDS011;40578;53.178;5.846;2023-04-24T15:08:39;10.80;;;4.10;;
54679;SDS011;40578;53.178;5.846;2023-04-24T15:11:05;11.90;;;3.67;;
54679;SDS011;40578;53.178;5.846;2023-04-24T15:13:31;10.13;;;4.07;;
54679;SDS011;40578;53.178;5.846;2023-04-24T15:15:56;12.63;;;4.90;;